Time;durP1;ratioP1;P1;durP2;ratioP2;P2;SDS_P1;SDS_P2;PMS_P1;PMS_P2;Temp;Humidity;BMP_temperature;BMP_pressure;BME280_temperature;BME280_humidity;BME280_pressure;Samples;Min_cycle;Max_cycle;Signal;HPM_P1;HPM_P2
2023/03/03 00:01:16;;;;;;;1999.90;999.90;;;5.40;99.90;;;;;;5016254;28;20033;-74
2023/03/03 00:03:42;;;;;;;1999.90;999.90;;;5.30;99.90;;;;;;5001409;28;20030;-74
2023/03/03 00:06:12;;;;;;;1999.90;999.90;;;5.30;99.90;;;;;;4996779;28;20031;-74
2023/03/03 00:08:39;;;;;;;1999.90;999.90;;;5.30;99.90;;;;;;4995265;28;20029;-74
2023/03/03 00:11:06;;;;;;;1999.90;999.90;;;5.30;99.90;;;;;;4997019;28;20030;-74
2023/03/03 00:13:39;;;;;;;1999.90;999.90;;;5.20;99.90;;;;;;4996411;28;20022;-74
2023/03/03 00:16:11;;;;;;;;;;;5.20;99.90;;;;;;4996174;28;20054;-80
2023/03/03 00:18:42;;;;;;;1999.90;999.90;;;5.20;99.90;;;;;;4996677;28;19906;-80
2023/03/03 00:21:31;;;;;;;1999.90;999.90;;;5.10;99.90;;;;;;4996641;28;20045;-74
2023/03/03 00:24:16;;;;;;;1999.90;999.90;;;5.10;99.90;;;;;;4995793;28;20065;-74
2023/03/03 00:26:54;;;;;;;1999.90;999.90;;;5.10;99.90;;;;;;4996635;28;20037;-80
2023/03/03 00:29:28;;;;;;;1999.90;999.90;;;5.00;99.90;;;;;;4996404;28;20019;-74
2023/03/03 00:31:54;;;;;;;1999.90;999.90;;;5.00;99.90;;;;;;4996529;28;20053;-80
2023/03/03 00:34:27;;;;;;;1999.90;999.90;;;4.90;99.90;;;;;;4996178;28;20554;-74
2023/03/03 00:36:57;;;;;;;1999.90;999.90;;;4.70;99.90;;;;;;4995845;28;20587;-74
2023/03/03 00:39:37;;;;;;;1999.90;999.90;;;4.70;99.90;;;;;;5010746;28;20139;-74
2023/03/03 00:42:23;;;;;;;1999.90;999.90;;;4.60;99.90;;;;;;5035596;28;20388;-80
2023/03/03 00:44:59;;;;;;;1999.90;999.90;;;4.50;99.90;;;;;;5035776;28;20068;-74
2023/03/03 00:47:26;;;;;;;1999.90;999.90;;;4.40;99.90;;;;;;4995802;28;20042;-80
2023/03/03 00:50:04;;;;;;;1999.90;999.90;;;4.30;99.90;;;;;;4995860;28;20034;-74
2023/03/03 00:52:35;;;;;;;1999.90;999.90;;;4.10;99.90;;;;;;4995945;28;20030;-80
2023/03/03 00:55:01;;;;;;;1999.90;999.90;;;4.00;99.90;;;;;;4995894;28;20038;-74
2023/03/03 00:57:27;;;;;;;1999.90;999.90;;;3.90;99.90;;;;;;4995827;28;20049;-80
2023/03/03 00:59:53;;;;;;;1999.90;999.90;;;3.80;99.90;;;;;;4996168;28;20027;-74
2023/03/03 01:02:18;;;;;;;1999.90;999.90;;;3.80;99.90;;;;;;4995561;28;20025;-73
2023/03/03 01:04:49;;;;;;;1999.90;999.90;;;3.70;99.90;;;;;;4996047;28;20124;-73
2023/03/03 01:07:15;;;;;;;1999.90;999.90;;;3.60;99.90;;;;;;4995394;28;20054;-80
2023/03/03 01:09:40;;;;;;;1999.90;999.90;;;3.50;99.90;;;;;;4995397;28;20070;-80
2023/03/03 01:12:06;;;;;;;1999.90;999.90;;;3.40;99.90;;;;;;4995747;28;20076;-74
2023/03/03 01:14:32;;;;;;;1999.90;999.90;;;3.30;99.90;;;;;;4995689;28;20034;-74
2023/03/03 01:16:58;;;;;;;1999.90;999.90;;;3.30;99.90;;;;;;4995103;28;20018;-74
2023/03/03 01:19:24;;;;;;;1999.90;999.90;;;3.20;99.90;;;;;;4995257;28;20076;-74
2023/03/03 01:21:50;;;;;;;1999.90;999.90;;;3.10;99.90;;;;;;4995358;28;20076;-74
2023/03/03 01:24:15;;;;;;;1999.90;999.90;;;3.10;99.90;;;;;;4994604;28;20085;-74
2023/03/03 01:26:41;;;;;;;1999.90;999.90;;;3.00;99.90;;;;;;4995358;28;20038;-74
2023/03/03 01:29:06;;;;;;;1999.90;999.90;;;3.00;99.90;;;;;;4995511;28;20037;-73
2023/03/03 01:31:32;;;;;;;1999.90;999.90;;;3.00;99.90;;;;;;5010064;28;20113;-73
2023/03/03 01:33:58;;;;;;;1999.90;999.90;;;2.90;99.90;;;;;;4995444;28;20048;-80
2023/03/03 01:36:25;;;;;;;1999.90;999.90;;;2.90;99.90;;;;;;4995280;28;20034;-80
2023/03/03 01:38:50;;;;;;;1999.90;999.90;;;2.90;99.90;;;;;;5001125;28;20523;-74
2023/03/03 01:41:16;;;;;;;1999.90;999.90;;;2.80;99.90;;;;;;5034222;28;20018;-74
2023/03/03 01:43:44;;;;;;;1999.90;999.90;;;2.80;99.90;;;;;;5034109;28;20040;-79
2023/03/03 01:46:53;;;;;;;1999.90;999.90;;;2.80;99.90;;;;;;5023529;28;20501;-80
2023/03/03 01:49:27;;;;;;;1999.90;999.90;;;2.80;99.90;;;;;;5013959;28;20045;-74
2023/03/03 01:52:11;;;;;;;1999.90;999.90;;;2.70;99.90;;;;;;5012580;28;20072;-73
2023/03/03 01:54:43;;;;;;;1999.90;999.90;;;2.70;99.90;;;;;;5014436;28;20022;-74
2023/03/03 01:57:22;;;;;;;1999.90;999.90;;;2.70;99.90;;;;;;5014169;28;20021;-73
2023/03/03 01:59:49;;;;;;;1999.90;999.90;;;2.70;99.90;;;;;;5012984;28;20026;-74
2023/03/03 02:02:15;;;;;;;1999.90;999.90;;;2.60;99.90;;;;;;5011207;28;20025;-74
2023/03/03 02:04:41;;;;;;;1999.90;999.90;;;2.50;99.90;;;;;;4994594;28;20085;-74
2023/03/03 02:07:10;;;;;;;1999.90;999.90;;;2.60;99.90;;;;;;4994611;28;20058;-74
2023/03/03 02:09:43;;;;;;;1999.90;999.90;;;2.50;99.90;;;;;;4994587;28;20076;-74
2023/03/03 02:12:12;;;;;;;1999.90;999.90;;;2.50;99.90;;;;;;4994875;28;20027;-80
2023/03/03 02:14:38;;;;;;;1999.90;999.90;;;2.50;99.90;;;;;;4994436;28;20052;-73
2023/03/03 02:17:03;;;;;;;1999.90;999.90;;;2.40;99.90;;;;;;4994364;28;20533;-74
2023/03/03 02:19:49;;;;;;;1999.90;999.90;;;2.40;99.90;;;;;;4994457;28;20474;-80
2023/03/03 02:22:19;;;;;;;1999.90;999.90;;;2.40;99.90;;;;;;4994226;28;20513;-73
2023/03/03 02:24:53;;;;;;;1999.90;999.90;;;2.30;99.90;;;;;;4993635;28;20040;-73
2023/03/03 02:27:19;;;;;;;1999.90;999.90;;;2.30;99.90;;;;;;4994161;28;20478;-80
2023/03/03 02:29:45;;;;;;;1999.90;999.90;;;2.30;99.90;;;;;;4993948;28;20026;-80
2023/03/03 02:32:11;;;;;;;1999.90;999.90;;;2.30;99.90;;;;;;4994265;28;20080;-73
2023/03/03 02:34:49;;;;;;;1999.90;999.90;;;2.30;99.90;;;;;;4994149;28;20022;-73
2023/03/03 02:37:15;;;;;;;1999.90;999.90;;;2.30;99.90;;;;;;4993802;28;20042;-80
2023/03/03 02:39:40;;;;;;;1999.90;999.90;;;2.40;99.90;;;;;;5044993;28;20060;-73
2023/03/03 02:42:24;;;;;;;1999.90;999.90;;;2.40;99.90;;;;;;5033203;28;20489;-73
2023/03/03 02:44:50;;;;;;;1999.90;999.90;;;2.40;99.90;;;;;;5033755;28;20026;-74
2023/03/03 02:47:16;;;;;;;1999.90;999.90;;;2.40;99.90;;;;;;5013064;28;20057;-74
2023/03/03 02:49:42;;;;;;;1999.90;999.90;;;2.50;99.90;;;;;;5013546;28;20095;-74
2023/03/03 02:52:09;;;;;;;1999.90;999.90;;;2.40;99.90;;;;;;5013572;28;20018;-74
2023/03/03 02:54:35;;;;;;;1999.90;999.90;;;2.40;99.90;;;;;;5013287;28;20057;-80
2023/03/03 02:57:02;;;;;;;1999.90;999.90;;;2.30;99.90;;;;;;5013382;28;20036;-73
2023/03/03 02:59:28;;;;;;;1999.90;999.90;;;2.30;99.90;;;;;;5013130;28;20037;-73
2023/03/03 03:01:54;;;;;;;1999.90;999.90;;;2.20;99.90;;;;;;5012986;28;20424;-74
2023/03/03 03:04:25;;;;;;;1999.90;999.90;;;2.20;99.90;;;;;;4993097;28;20101;-80
2023/03/03 03:06:51;;;;;;;1999.90;999.90;;;2.10;99.90;;;;;;4993566;28;20034;-73
2023/03/03 03:09:18;;;;;;;1999.90;999.90;;;2.10;99.90;;;;;;4993460;28;20053;-74
2023/03/03 03:11:44;;;;;;;1999.90;999.90;;;2.00;99.90;;;;;;4993642;28;20022;-73
2023/03/03 03:14:12;;;;;;;1999.90;999.90;;;1.90;99.90;;;;;;4993580;28;20042;-73
2023/03/03 03:16:38;;;;;;;1999.90;999.90;;;1.90;99.90;;;;;;4993369;28;20050;-79
2023/03/03 03:19:04;;;;;;;1999.90;999.90;;;1.90;99.90;;;;;;4993271;28;20540;-80
2023/03/03 03:21:31;;;;;;;1999.90;999.90;;;1.90;99.90;;;;;;4993627;28;20058;-73
2023/03/03 03:23:57;;;;;;;1999.90;999.90;;;1.90;99.90;;;;;;4993098;28;20026;-74
2023/03/03 03:26:23;;;;;;;1999.90;999.90;;;1.80;99.90;;;;;;4993286;28;20011;-73
2023/03/03 03:28:50;;;;;;;1999.90;999.90;;;1.80;99.90;;;;;;5024810;28;20034;-74
2023/03/03 03:31:17;;;;;;;1999.90;999.90;;;1.80;99.90;;;;;;4993062;28;20477;-80
2023/03/03 03:33:42;;;;;;;1999.90;999.90;;;1.80;99.90;;;;;;4993382;28;20492;-80
2023/03/03 03:36:08;;;;;;;1999.90;999.90;;;1.80;99.90;;;;;;4992938;28;20026;-73
2023/03/03 03:38:35;;;;;;;1999.90;999.90;;;1.80;99.90;;;;;;4994222;28;20038;-74
2023/03/03 03:41:02;;;;;;;1999.90;999.90;;;1.70;99.90;;;;;;5032623;28;20026;-73
2023/03/03 03:43:28;;;;;;;1999.90;999.90;;;1.70;99.90;;;;;;5032341;28;20034;-80
2023/03/03 03:45:53;;;;;;;1999.90;999.90;;;1.70;99.90;;;;;;5022503;28;20061;-74
2023/03/03 03:48:19;;;;;;;1999.90;999.90;;;1.60;99.90;;;;;;5012813;28;20026;-73
2023/03/03 03:50:49;;;;;;;1999.90;999.90;;;1.60;99.90;;;;;;5012694;28;20389;-74
2023/03/03 03:53:16;;;;;;;1999.90;999.90;;;1.60;99.90;;;;;;5012767;28;20026;-74
2023/03/03 03:55:42;;;;;;;1999.90;999.90;;;1.50;99.90;;;;;;5012600;28;20128;-80
2023/03/03 03:58:09;;;;;;;1999.90;999.90;;;1.50;99.90;;;;;;5012813;28;20104;-80
2023/03/03 04:00:35;;;;;;;1999.90;999.90;;;1.50;99.90;;;;;;5012669;28;20026;-73
2023/03/03 04:03:00;;;;;;;1999.90;999.90;;;1.50;99.90;;;;;;5003448;28;20030;-74
2023/03/03 04:05:26;;;;;;;1999.90;999.90;;;1.50;99.90;;;;;;4992986;28;20061;-74
2023/03/03 04:07:52;;;;;;;1999.90;999.90;;;1.40;99.90;;;;;;5024506;28;20038;-80
2023/03/03 04:10:18;;;;;;;1999.90;999.90;;;1.40;99.90;;;;;;4993183;28;20113;-80
2023/03/03 04:12:43;;;;;;;1999.90;999.90;;;1.40;99.90;;;;;;4992760;28;20030;-80
2023/03/03 04:15:11;;;;;;;1999.90;999.90;;;1.30;99.90;;;;;;5003355;28;20026;-73
2023/03/03 04:17:37;;;;;;;1999.90;999.90;;;1.30;99.90;;;;;;5015596;28;20088;-73
2023/03/03 04:20:04;;;;;;;1999.90;999.90;;;1.20;99.90;;;;;;5016237;28;20032;-73
2023/03/03 04:22:32;;;;;;;1999.90;999.90;;;1.20;99.90;;;;;;5016266;28;20026;-80
2023/03/03 04:25:08;;;;;;;1999.90;999.90;;;1.20;99.90;;;;;;5015622;28;20022;-80
2023/03/03 04:27:35;;;;;;;1999.90;999.90;;;1.20;99.90;;;;;;5016025;28;20026;-73
2023/03/03 04:30:02;;;;;;;1999.90;999.90;;;1.20;99.90;;;;;;5015871;28;20054;-73
2023/03/03 04:32:29;;;;;;;1999.90;999.90;;;1.10;99.90;;;;;;5014567;28;20079;-73
2023/03/03 04:34:54;;;;;;;1999.90;999.90;;;1.10;99.90;;;;;;5016189;28;20014;-80
2023/03/03 04:37:20;;;;;;;1999.90;999.90;;;1.10;99.90;;;;;;5015539;28;20091;-80
2023/03/03 04:39:46;;;;;;;1999.90;999.90;;;1.10;99.90;;;;;;5025844;28;20033;-73
2023/03/03 04:42:11;;;;;;;1999.90;999.90;;;1.10;99.90;;;;;;5034306;28;20040;-73
2023/03/03 04:44:37;;;;;;;1999.90;999.90;;;1.10;99.90;;;;;;5035543;28;20032;-73
2023/03/03 04:47:03;;;;;;;1999.90;999.90;;;1.10;99.90;;;;;;5017361;28;20428;-80
2023/03/03 04:49:28;;;;;;;1999.90;999.90;;;1.10;99.90;;;;;;5015271;28;20022;-80
2023/03/03 04:51:54;;;;;;;1999.90;999.90;;;1.10;99.90;;;;;;5015722;28;20026;-74
2023/03/03 04:54:20;;;;;;;1999.90;999.90;;;1.10;99.90;;;;;;5015469;28;20072;-80
2023/03/03 04:56:45;;;;;;;1999.90;999.90;;;1.10;99.90;;;;;;5015711;28;20547;-73
2023/03/03 04:59:11;;;;;;;1999.90;999.90;;;1.10;99.90;;;;;;5015520;28;20018;-73
2023/03/03 05:01:37;;;;;;;1999.90;999.90;;;1.10;99.90;;;;;;5015925;28;20389;-80
2023/03/03 05:04:02;;;;;;;1999.90;999.90;;;1.00;99.90;;;;;;4997634;28;20453;-80
2023/03/03 05:06:28;;;;;;;1999.90;999.90;;;1.00;99.90;;;;;;4995635;28;20041;-73
2023/03/03 05:08:53;;;;;;;1999.90;999.90;;;1.00;99.90;;;;;;4995658;28;20109;-74
2023/03/03 05:11:19;;;;;;;1999.90;999.90;;;1.00;99.90;;;;;;4995855;28;20038;-74
2023/03/03 05:13:44;;;;;;;1999.90;999.90;;;1.00;99.90;;;;;;4995916;28;20031;-80
2023/03/03 05:16:10;;;;;;;1999.90;999.90;;;1.00;99.90;;;;;;4995587;28;20081;-80
2023/03/03 05:18:36;;;;;;;1999.90;999.90;;;1.00;99.90;;;;;;5026986;28;20501;-74
2023/03/03 05:21:02;;;;;;;1999.90;999.90;;;1.00;99.90;;;;;;4995495;28;20065;-73
2023/03/03 05:23:27;;;;;;;1999.90;999.90;;;1.00;99.90;;;;;;4995381;28;20022;-74
2023/03/03 05:25:53;;;;;;;1999.90;999.90;;;1.00;99.90;;;;;;4994719;28;20037;-74
2023/03/03 05:28:19;;;;;;;1999.90;999.90;;;1.00;99.90;;;;;;4993359;28;20397;-80
2023/03/03 05:30:45;;;;;;;1999.90;999.90;;;0.90;99.90;;;;;;4995233;28;20034;-74
2023/03/03 05:33:15;;;;;;;1999.90;999.90;;;0.90;99.90;;;;;;4995453;28;20129;-73
2023/03/03 05:35:41;;;;;;;1999.90;999.90;;;0.90;99.90;;;;;;4995053;28;20413;-74
2023/03/03 05:38:07;;;;;;;1999.90;999.90;;;0.90;99.90;;;;;;4995354;28;20100;-73
2023/03/03 05:40:32;;;;;;;1999.90;999.90;;;0.90;99.90;;;;;;5028238;28;20496;-80
2023/03/03 05:42:58;;;;;;;1999.90;999.90;;;0.90;99.90;;;;;;5034320;28;20022;-74
2023/03/03 05:45:24;;;;;;;1999.90;999.90;;;0.90;99.90;;;;;;5029951;28;20025;-74
2023/03/03 05:47:50;;;;;;;1999.90;999.90;;;0.90;99.90;;;;;;5014374;28;20049;-73
2023/03/03 05:50:17;;;;;;;1999.90;999.90;;;0.90;99.90;;;;;;5014321;28;20520;-73
2023/03/03 05:52:43;;;;;;;1999.90;999.90;;;0.90;99.90;;;;;;5014693;28;20044;-73
2023/03/03 05:55:09;;;;;;;1999.90;999.90;;;0.90;99.90;;;;;;5014398;28;20073;-80
2023/03/03 05:57:35;;;;;;;1999.90;999.90;;;0.90;99.90;;;;;;5016657;28;20943;-74
2023/03/03 06:00:06;;;;;;;1999.90;999.90;;;0.90;99.90;;;;;;5013983;28;20500;-73
2023/03/03 06:02:33;;;;;;;1999.90;999.90;;;1.00;99.90;;;;;;5008381;28;20014;-74
2023/03/03 06:04:59;;;;;;;1999.90;999.90;;;1.00;99.90;;;;;;4994629;28;20057;-80
2023/03/03 06:07:24;;;;;;;1999.90;999.90;;;1.10;99.90;;;;;;4994465;28;20053;-80
2023/03/03 06:09:50;;;;;;;1999.90;999.90;;;1.10;99.90;;;;;;4994459;28;20029;-75
2023/03/03 06:12:16;;;;;;;1999.90;999.90;;;1.10;99.90;;;;;;5025917;28;20053;-73
2023/03/03 06:14:41;;;;;;;1999.90;999.90;;;1.10;99.90;;;;;;5025699;28;20026;-74
2023/03/03 06:17:07;;;;;;;1999.90;999.90;;;1.10;99.90;;;;;;4994592;28;20033;-73
2023/03/03 06:19:32;;;;;;;1999.90;999.90;;;1.10;99.90;;;;;;4994107;28;20026;-80
2023/03/03 06:21:58;;;;;;;1999.90;999.90;;;1.10;99.90;;;;;;4994529;28;20031;-80
2023/03/03 06:24:25;;;;;;;1999.90;999.90;;;1.10;99.90;;;;;;4994154;28;20034;-73
2023/03/03 06:26:51;;;;;;;1999.90;999.90;;;1.10;99.90;;;;;;4993578;28;20397;-73
2023/03/03 06:29:16;;;;;;;1999.90;999.90;;;1.10;99.90;;;;;;4993998;28;20027;-73
2023/03/03 06:31:42;;;;;;;1999.90;999.90;;;1.10;99.90;;;;;;4994156;28;20031;-80
2023/03/03 06:34:08;;;;;;;1999.90;999.90;;;1.20;99.90;;;;;;4993991;28;20030;-73
2023/03/03 06:36:34;;;;;;;1999.90;999.90;;;1.20;99.90;;;;;;4993534;28;20106;-80
2023/03/03 06:38:59;;;;;;;1999.90;999.90;;;1.20;99.90;;;;;;5001477;28;20033;-80
2023/03/03 06:41:25;;;;;;;1999.90;999.90;;;1.20;99.90;;;;;;5033163;28;20101;-80
2023/03/03 06:43:51;;;;;;;1999.90;999.90;;;1.20;99.90;;;;;;5033406;28;20029;-74
2023/03/03 06:46:16;;;;;;;1999.90;999.90;;;1.30;99.90;;;;;;5015692;28;20046;-74
2023/03/03 06:48:42;;;;;;;1999.90;999.90;;;1.30;99.90;;;;;;5011396;28;20041;-74
2023/03/03 06:51:22;;;;;;;1999.90;999.90;;;1.40;99.90;;;;;;5012290;28;20034;-80
2023/03/03 06:53:51;;;;;;;1999.90;999.90;;;1.30;99.90;;;;;;5014156;28;20045;-80
2023/03/03 06:56:17;;;;;;;1999.90;999.90;;;1.40;99.90;;;;;;5030857;28;20037;-80
2023/03/03 06:58:43;;;;;;;1999.90;999.90;;;1.40;99.90;;;;;;5009820;28;20026;-74
2023/03/03 07:01:15;;;;;;;1999.90;999.90;;;1.40;99.90;;;;;;5029447;28;20033;-74
2023/03/03 07:03:41;;;;;;;1999.90;999.90;;;1.50;99.90;;;;;;5014100;28;20030;-80
2023/03/03 07:06:23;;;;;;;1999.90;999.90;;;1.50;99.90;;;;;;5017590;28;20045;-80
2023/03/03 07:08:53;;;;;;;1999.90;999.90;;;1.50;99.90;;;;;;5023478;28;20022;-80
2023/03/03 07:11:21;;;;;;;1999.90;999.90;;;1.50;99.90;;;;;;5010052;28;20056;-74
2023/03/03 07:13:52;;;;;;;1999.90;999.90;;;1.60;99.90;;;;;;5010397;28;20464;-74
2023/03/03 07:16:19;;;;;;;1999.90;999.90;;;1.60;99.90;;;;;;5008077;28;20054;-74
2023/03/03 07:18:49;;;;;;;1999.90;999.90;;;1.60;99.90;;;;;;5011086;28;20028;-79
2023/03/03 07:21:25;;;;;;;1999.90;999.90;;;1.70;99.90;;;;;;5019226;28;20049;-74
2023/03/03 07:23:52;;;;;;;1999.90;999.90;;;1.60;99.90;;;;;;5012618;28;20501;-74
2023/03/03 07:26:21;;;;;;;1999.90;999.90;;;1.60;99.90;;;;;;5028354;28;20040;-74
2023/03/03 07:28:54;;;;;;;1999.90;999.90;;;1.70;99.90;;;;;;5029631;28;20022;-80
2023/03/03 07:31:26;;;;;;;1999.90;999.90;;;1.80;99.90;;;;;;5030183;28;20516;-74
2023/03/03 07:33:53;;;;;;;1999.90;999.90;;;1.80;99.90;;;;;;5020141;28;20030;-78
2023/03/03 07:36:38;;;;;;;1999.90;999.90;;;1.90;99.90;;;;;;5040316;28;20032;-73
2023/03/03 07:39:20;;;;;;;1999.90;999.90;;;2.00;99.90;;;;;;4996412;28;20029;-74
2023/03/03 07:41:46;;;;;;;1999.90;999.90;;;2.00;99.90;;;;;;5009591;28;20041;-80
2023/03/03 07:44:21;;;;;;;1999.90;999.90;;;2.10;99.90;;;;;;5013902;28;20040;-80
2023/03/03 07:46:48;;;;;;;1999.90;999.90;;;2.20;99.90;;;;;;5000320;28;20054;-73
2023/03/03 07:49:23;;;;;;;1999.90;999.90;;;2.20;99.90;;;;;;5024995;28;20026;-73
2023/03/03 07:51:56;;;;;;;1999.90;999.90;;;2.20;99.90;;;;;;5013471;28;20029;-74
2023/03/03 07:54:39;;;;;;;1999.90;999.90;;;2.20;99.90;;;;;;5015389;28;20432;-81
2023/03/03 07:57:10;;;;;;;1999.90;999.90;;;2.30;99.90;;;;;;5014014;28;20057;-74
2023/03/03 07:59:50;;;;;;;1999.90;999.90;;;2.40;99.90;;;;;;5015212;28;20037;-74
2023/03/03 08:02:39;;;;;;;1999.90;999.90;;;2.40;99.90;;;;;;5017531;28;20041;-74
2023/03/03 08:05:29;;;;;;;1999.90;999.90;;;2.30;99.90;;;;;;5012887;28;20152;-74
2023/03/03 08:08:14;;;;;;;1999.90;999.90;;;2.30;99.90;;;;;;5024781;28;20352;-74
2023/03/03 08:10:52;;;;;;;1999.90;999.90;;;2.40;99.90;;;;;;5008980;28;20026;-80
2023/03/03 08:13:26;;;;;;;1999.90;999.90;;;2.50;99.90;;;;;;5012934;28;20084;-81
2023/03/03 08:15:58;;;;;;;1999.90;999.90;;;2.50;99.90;;;;;;5010686;28;20116;-74
2023/03/03 08:18:28;;;;;;;1999.90;999.90;;;2.50;99.90;;;;;;5012045;28;20072;-74
2023/03/03 08:20:57;;;;;;;1999.90;999.90;;;2.70;99.90;;;;;;5012062;28;20026;-78
2023/03/03 08:23:23;;;;;;;1999.90;999.90;;;2.80;99.90;;;;;;5014009;28;20109;-82
2023/03/03 08:25:50;;;;;;;1999.90;999.90;;;2.80;99.90;;;;;;5013236;28;20116;-82
2023/03/03 08:28:17;;;;;;;1999.90;999.90;;;2.80;99.90;;;;;;5011231;28;20038;-73
2023/03/03 08:30:44;;;;;;;1999.90;999.90;;;2.90;99.90;;;;;;5011980;28;20366;-74
2023/03/03 08:33:10;;;;;;;1999.90;999.90;;;3.10;99.90;;;;;;5010129;28;20480;-74
2023/03/03 08:35:35;;;;;;;1999.90;999.90;;;3.20;99.90;;;;;;5044352;28;20109;-82
2023/03/03 08:38:02;;;;;;;1999.90;999.90;;;3.30;99.90;;;;;;5012378;28;20556;-82
2023/03/03 08:40:28;;;;;;;1999.90;999.90;;;3.30;99.90;;;;;;5028578;28;20162;-82
2023/03/03 08:42:53;;;;;;;1999.90;999.90;;;3.40;99.90;;;;;;5023616;28;20504;-80
2023/03/03 08:45:19;;;;;;;1999.90;999.90;;;3.40;99.90;;;;;;5012804;28;20029;-74
2023/03/03 08:47:45;;;;;;;1999.90;999.90;;;3.50;99.90;;;;;;5017807;28;20626;-80
2023/03/03 08:50:12;;;;;;;1999.90;999.90;;;3.60;99.90;;;;;;5032059;28;20036;-78
2023/03/03 08:52:38;;;;;;;1999.90;999.90;;;3.60;99.90;;;;;;5031851;28;20472;-82
2023/03/03 08:55:03;;;;;;;1999.90;999.90;;;3.70;99.90;;;;;;5031534;28;20029;-74
2023/03/03 08:57:29;;;;;;;1999.90;999.90;;;3.80;99.90;;;;;;5020498;28;20611;-82
2023/03/03 08:59:55;;;;;;;1999.90;999.90;;;3.90;99.90;;;;;;5030633;28;20034;-82
2023/03/03 09:02:20;;;;;;;1999.90;999.90;;;4.10;99.90;;;;;;5009448;28;20035;-81
2023/03/03 09:04:46;;;;;;;1999.90;999.90;;;4.20;99.90;;;;;;4992752;28;20026;-81
2023/03/03 09:07:11;;;;;;;1999.90;999.90;;;4.30;99.90;;;;;;5023025;28;20037;-74
2023/03/03 09:09:38;;;;;;;1999.90;999.90;;;4.50;99.90;;;;;;5010831;28;20554;-74
2023/03/03 09:12:16;;;;;;;1999.90;999.90;;;4.80;99.90;;;;;;5011039;28;20026;-81
2023/03/03 09:14:42;;;;;;;1999.90;999.90;;;4.90;99.90;;;;;;5010625;28;20109;-81
2023/03/03 09:17:22;;;;;;;1999.90;999.90;;;4.90;99.90;;;;;;5012089;28;20339;-81
2023/03/03 09:19:48;;;;;;;1999.90;999.90;;;5.00;99.90;;;;;;5006214;28;20033;-80
2023/03/03 09:22:23;;;;;;;1999.90;999.90;;;5.20;99.90;;;;;;5015878;28;20033;-74
2023/03/03 09:24:52;;;;;;;1999.90;999.90;;;5.30;99.90;;;;;;4991996;28;20030;-74
2023/03/03 09:27:39;;;;;;;1999.90;999.90;;;5.40;99.90;;;;;;5004869;28;20511;-81
2023/03/03 09:30:36;;;;;;;1999.90;999.90;;;5.50;99.90;;;;;;5011267;28;20398;-81
2023/03/03 09:33:39;;;;;;;1999.90;999.90;;;5.60;99.90;;;;;;5008916;28;20042;-74
2023/03/03 09:36:18;;;;;;;1999.90;999.90;;;5.60;99.90;;;;;;5010612;28;20050;-74
2023/03/03 09:38:44;;;;;;;1999.90;999.90;;;5.50;99.90;;;;;;5007077;28;20452;-74
2023/03/03 09:41:23;;;;;;;1999.90;999.90;;;5.60;99.90;;;;;;5010524;28;20967;-75
2023/03/03 09:43:54;;;;;;;1999.90;999.90;;;5.70;99.90;;;;;;5009361;28;20040;-82
2023/03/03 09:46:34;;;;;;;1999.90;999.90;;;5.80;99.90;;;;;;5014583;28;20045;-80
2023/03/03 09:49:23;;;;;;;1999.90;999.90;;;5.90;99.90;;;;;;5012988;28;20040;-75
2023/03/03 09:52:16;;;;;;;1999.90;999.90;;;6.10;99.90;;;;;;5011104;28;20392;-82
2023/03/03 09:55:11;;;;;;;1999.90;999.90;;;6.20;99.90;;;;;;5009399;28;20088;-82
2023/03/03 09:57:43;;;;;;;1999.90;999.90;;;6.10;99.90;;;;;;5017350;28;20096;-81
2023/03/03 10:00:14;;;;;;;1999.90;999.90;;;6.30;99.90;;;;;;5010968;28;20037;-74
2023/03/03 10:02:49;;;;;;;1999.90;999.90;;;6.30;99.90;;;;;;5008574;28;20037;-74
2023/03/03 10:05:41;;;;;;;1999.90;999.90;;;6.40;99.90;;;;;;5010976;28;20083;-82
2023/03/03 10:08:35;;;;;;;1999.90;999.90;;;6.50;99.90;;;;;;5019868;28;20026;-79
2023/03/03 10:11:40;;;;;;;1999.90;999.90;;;6.70;99.90;;;;;;5010449;28;20026;-74
2023/03/03 10:14:26;;;;;;;1999.90;999.90;;;7.10;99.90;;;;;;5022530;28;20037;-74
2023/03/03 10:17:02;;;;;;;1999.90;999.90;;;7.00;99.90;;;;;;5029169;28;20045;-74
2023/03/03 10:19:33;;;;;;;1999.90;999.90;;;7.20;99.90;;;;;;5026830;28;20026;-82
2023/03/03 10:22:15;;;;;;;1999.90;999.90;;;7.20;99.90;;;;;;5043480;28;20033;-74
2023/03/03 10:24:51;;;;;;;1999.90;999.90;;;7.50;99.90;;;;;;5023571;28;20725;-82
2023/03/03 10:27:46;;;;;;;1999.90;999.90;;;7.70;99.90;;;;;;5028539;28;20388;-74
2023/03/03 10:30:43;;;;;;;1999.90;999.90;;;7.60;99.90;;;;;;5009894;28;20096;-74
2023/03/03 10:33:42;;;;;;;1999.90;999.90;;;7.60;99.90;;;;;;5010307;28;20034;-81
2023/03/03 10:36:13;;;;;;;1999.90;999.90;;;7.60;99.90;;;;;;5009816;28;20504;-81
2023/03/03 10:39:03;;;;;;;1999.90;999.90;;;7.60;99.90;;;;;;5011444;28;20431;-74
2023/03/03 10:41:42;;;;;;;1999.90;999.90;;;7.60;99.90;;;;;;5028063;28;20025;-74
2023/03/03 10:44:13;;;;;;;1999.90;999.90;;;7.70;99.90;;;;;;5009981;28;20396;-80
2023/03/03 10:47:17;;;;;;;1999.90;999.90;;;7.60;99.90;;;;;;5013041;28;20045;-74
2023/03/03 10:50:11;;;;;;;1999.90;999.90;;;7.50;99.90;;;;;;5029836;28;20030;-79
2023/03/03 10:52:46;;;;;;;1999.90;999.90;;;7.60;99.90;;;;;;5018683;28;20527;-74
2023/03/03 10:55:30;;;;;;;1999.90;999.90;;;7.70;99.90;;;;;;5022085;28;20045;-82
2023/03/03 10:58:30;;;;;;;1999.90;999.90;;;7.60;99.90;;;;;;5017352;28;20025;-80
2023/03/03 11:00:59;;;;;;;1999.90;999.90;;;7.60;99.90;;;;;;5009519;28;20045;-74
2023/03/03 11:03:38;;;;;;;1999.90;999.90;;;7.80;99.90;;;;;;5004654;28;20029;-82
2023/03/03 11:06:36;;;;;;;1999.90;999.90;;;7.70;99.90;;;;;;5022503;28;20477;-82
2023/03/03 11:09:16;;;;;;;1999.90;999.90;;;7.70;99.90;;;;;;5004653;28;20416;-82
2023/03/03 11:12:25;;;;;;;1999.90;999.90;;;7.70;99.90;;;;;;5009435;28;20065;-74
2023/03/03 11:15:03;;;;;;;1999.90;999.90;;;7.70;99.90;;;;;;5008800;28;20041;-74
2023/03/03 11:17:55;;;;;;;1999.90;999.90;;;7.70;99.90;;;;;;5010038;28;20097;-74
2023/03/03 11:20:33;;;;;;;1999.90;999.90;;;7.70;99.90;;;;;;5009860;28;20088;-74
2023/03/03 11:23:27;;;;;;;1999.90;999.90;;;7.70;99.90;;;;;;5014790;28;20036;-80
2023/03/03 11:26:06;;;;;;;1999.90;999.90;;;8.00;99.90;;;;;;4999693;28;20436;-74
2023/03/03 11:29:08;;;;;;;1999.90;999.90;;;7.90;99.90;;;;;;5020499;28;20261;-81
2023/03/03 11:31:56;;;;;;;1999.90;999.90;;;8.10;99.90;;;;;;5010297;28;20493;-81
2023/03/03 11:34:56;;;;;;;1999.90;999.90;;;8.10;99.90;;;;;;5007977;28;20485;-74
2023/03/03 11:37:44;;;;;;;1999.90;999.90;;;8.20;99.90;;;;;;4990094;28;20031;-81
2023/03/03 11:40:26;;;;;;;1999.90;999.90;;;8.30;99.90;;;;;;5011372;28;20018;-79
2023/03/03 11:43:12;;;;;;;1999.90;999.90;;;8.50;99.90;;;;;;5008647;28;20041;-74
2023/03/03 11:45:48;;;;;;;1999.90;999.90;;;8.70;99.90;;;;;;5009176;28;20022;-74
2023/03/03 11:48:19;;;;;;;1999.90;999.90;;;8.90;99.90;;;;;;5009607;28;20037;-80
2023/03/03 11:51:03;;;;;;;1999.90;999.90;;;8.80;99.90;;;;;;5022837;28;20148;-82
2023/03/03 11:53:47;;;;;;;1999.90;999.90;;;8.90;99.90;;;;;;5023946;28;20032;-81
2023/03/03 11:56:37;;;;;;;1999.90;999.90;;;9.00;99.90;;;;;;5007712;28;20041;-74
2023/03/03 11:59:22;;;;;;;1999.90;999.90;;;9.10;99.90;;;;;;5008341;28;20370;-74
2023/03/03 12:01:58;;;;;;;1999.90;999.90;;;9.00;99.90;;;;;;5007670;28;20044;-74
2023/03/03 12:04:33;;;;;;;1999.90;999.90;;;9.10;99.90;;;;;;5011412;28;20030;-81
2023/03/03 12:07:24;;;;;;;1999.90;999.90;;;9.20;99.90;;;;;;5023740;28;20061;-75
2023/03/03 12:09:55;;;;;;;1999.90;999.90;;;9.20;99.90;;;;;;5008083;28;20104;-74
2023/03/03 12:12:26;;;;;;;1999.90;999.90;;;9.40;99.90;;;;;;5009572;28;20118;-74
2023/03/03 12:15:29;;;;;;;1999.90;999.90;;;9.40;99.90;;;;;;5005031;28;20041;-81
2023/03/03 12:18:11;;;;;;;1999.90;999.90;;;9.70;99.90;;;;;;4998940;28;20026;-82
2023/03/03 12:20:43;;;;;;;1999.90;999.90;;;9.60;99.90;;;;;;5008699;28;20132;-80
2023/03/03 12:23:17;;;;;;;1999.90;999.90;;;9.80;99.90;;;;;;5015247;28;20030;-74
2023/03/03 12:25:50;;;;;;;1999.90;999.90;;;9.90;99.90;;;;;;5022539;28;20507;-74
2023/03/03 12:28:22;;;;;;;1999.90;999.90;;;10.20;99.90;;;;;;5009351;28;20108;-81
2023/03/03 12:31:06;;;;;;;1999.90;999.90;;;10.40;99.90;;;;;;5018938;28;20046;-81
2023/03/03 12:33:55;;;;;;;1999.90;999.90;;;10.40;99.90;;;;;;5008664;28;20030;-81